createdAt,value
2018-10-05T00:00:03.333Z,11.90
2018-10-05T00:02:31.349Z,11.80
2018-10-05T00:04:59.454Z,11.80
2018-10-05T00:07:28.469Z,11.80
2018-10-05T00:09:56.449Z,11.80
2018-10-05T00:12:24.467Z,11.80
2018-10-05T00:14:52.437Z,11.80
2018-10-05T00:17:20.546Z,11.80
2018-10-05T00:19:49.042Z,11.70
2018-10-05T00:22:17.069Z,11.60
2018-10-05T00:24:45.718Z,11.60
2018-10-05T00:27:13.673Z,11.60
2018-10-05T00:29:41.701Z,11.50
2018-10-05T00:32:09.796Z,11.60
2018-10-05T00:34:37.883Z,11.60
2018-10-05T00:37:05.871Z,11.50
2018-10-05T00:39:33.885Z,11.50
2018-10-05T00:42:01.916Z,11.50
2018-10-05T00:44:29.869Z,11.40
2018-10-05T00:46:57.912Z,11.40
2018-10-05T00:49:25.950Z,11.40
2018-10-05T00:51:53.950Z,11.40
2018-10-05T00:54:21.919Z,11.40
2018-10-05T00:56:49.925Z,11.40
2018-10-05T00:59:17.872Z,11.30
2018-10-05T01:01:45.894Z,11.40
2018-10-05T01:04:13.797Z,11.40
2018-10-05T01:06:41.765Z,11.30
2018-10-05T01:09:09.831Z,11.30
2018-10-05T01:11:37.977Z,11.30
2018-10-05T01:14:05.861Z,11.30
2018-10-05T01:16:33.847Z,11.30
2018-10-05T01:19:01.837Z,11.30
2018-10-05T01:21:29.814Z,11.30
2018-10-05T01:23:57.850Z,11.30
2018-10-05T01:26:26.709Z,11.30
2018-10-05T01:28:54.855Z,11.20
2018-10-05T01:31:23.402Z,11.20
2018-10-05T01:33:51.414Z,11.20
2018-10-05T01:36:19.393Z,11.20
2018-10-05T01:38:47.630Z,11.20
2018-10-05T01:41:15.686Z,11.20
2018-10-05T01:43:43.846Z,11.20
2018-10-05T01:46:11.915Z,11.20
2018-10-05T01:48:39.888Z,11.20
2018-10-05T01:51:07.956Z,11.30
2018-10-05T01:53:36.049Z,11.20
2018-10-05T01:56:04.108Z,11.10
2018-10-05T01:58:34.016Z,11.10
2018-10-05T02:01:02.206Z,11.10
2018-10-05T02:03:30.190Z,11.10
2018-10-05T02:05:58.521Z,11.10
2018-10-05T02:08:26.595Z,11.00
2018-10-05T02:10:55.402Z,11.00
2018-10-05T02:13:23.389Z,11.00
2018-10-05T02:15:51.365Z,11.00
2018-10-05T02:18:19.343Z,10.90
2018-10-05T02:20:47.298Z,10.90
2018-10-05T02:23:15.298Z,10.90
2018-10-05T02:25:43.273Z,10.80
2018-10-05T02:28:11.253Z,10.80
2018-10-05T02:30:39.235Z,10.80
2018-10-05T02:33:07.392Z,10.70
2018-10-05T02:35:35.638Z,10.70
2018-10-05T02:38:03.609Z,10.70
2018-10-05T02:40:31.641Z,10.60
2018-10-05T02:42:59.932Z,10.60
2018-10-05T02:45:27.911Z,10.60
2018-10-05T02:47:55.885Z,10.70
2018-10-05T02:50:23.855Z,10.60
2018-10-05T02:52:51.849Z,10.60
2018-10-05T02:55:19.824Z,10.60
2018-10-05T02:57:47.829Z,10.60
2018-10-05T03:00:27.281Z,10.60
2018-10-05T03:02:55.325Z,10.60
2018-10-05T03:05:23.320Z,10.60
2018-10-05T03:07:51.306Z,10.60
2018-10-05T03:10:19.648Z,10.60
2018-10-05T03:12:47.653Z,10.60
2018-10-05T03:15:15.685Z,10.60
2018-10-05T03:17:43.694Z,10.60
2018-10-05T03:20:11.717Z,10.60
2018-10-05T03:22:39.696Z,10.50
2018-10-05T03:25:07.709Z,10.50
2018-10-05T03:27:35.727Z,10.50
2018-10-05T03:30:03.705Z,10.60
2018-10-05T03:32:31.762Z,10.60
2018-10-05T03:34:59.749Z,10.60
2018-10-05T03:37:27.746Z,10.60
2018-10-05T03:39:55.733Z,10.60
2018-10-05T03:42:24.586Z,10.50
2018-10-05T03:44:52.565Z,10.50
2018-10-05T03:47:20.545Z,10.50
2018-10-05T03:49:48.541Z,10.50
2018-10-05T03:52:16.538Z,10.50
2018-10-05T03:54:44.553Z,10.50
2018-10-05T03:57:12.537Z,10.50
2018-10-05T03:59:40.533Z,10.50
2018-10-05T04:02:08.725Z,10.50
2018-10-05T04:04:36.913Z,10.40
2018-10-05T04:07:04.957Z,10.40
2018-10-05T04:09:32.980Z,10.40
2018-10-05T04:12:00.956Z,10.40
2018-10-05T04:14:28.949Z,10.40
2018-10-05T04:16:56.943Z,10.40
2018-10-05T04:19:25.008Z,10.40
2018-10-05T04:21:53.004Z,10.40
2018-10-05T04:24:21.090Z,10.40
2018-10-05T04:26:49.116Z,10.40
2018-10-05T04:29:17.271Z,10.40
2018-10-05T04:31:45.437Z,10.50
2018-10-05T04:34:13.496Z,10.40
2018-10-05T04:36:41.477Z,10.40
2018-10-05T04:39:09.901Z,10.40
2018-10-05T04:41:37.869Z,10.50
2018-10-05T04:44:06.121Z,10.40
2018-10-05T04:46:34.169Z,10.40
2018-10-05T04:49:02.169Z,10.40
2018-10-05T04:51:30.181Z,10.40
2018-10-05T04:53:58.227Z,10.40
2018-10-05T04:56:26.247Z,10.40
2018-10-05T04:58:54.236Z,10.40
2018-10-05T05:01:22.217Z,10.40
2018-10-05T05:03:50.226Z,10.40
2018-10-05T05:06:18.200Z,10.30
2018-10-05T05:08:46.216Z,10.30
2018-10-05T05:11:14.207Z,10.30
2018-10-05T05:13:42.170Z,10.30
2018-10-05T05:16:10.157Z,10.30
2018-10-05T05:18:38.180Z,10.30
2018-10-05T05:21:06.245Z,10.20
2018-10-05T05:23:34.234Z,10.20
2018-10-05T05:26:02.205Z,10.20
2018-10-05T05:28:30.985Z,10.20
2018-10-05T05:30:58.985Z,10.20
2018-10-05T05:33:26.997Z,10.20
2018-10-05T05:35:54.995Z,10.10
2018-10-05T05:38:23.178Z,10.10
2018-10-05T05:40:51.169Z,10.20
2018-10-05T05:43:19.161Z,10.10
2018-10-05T05:45:47.157Z,10.10
2018-10-05T05:48:15.251Z,10.20
2018-10-05T05:50:43.328Z,10.20
2018-10-05T05:53:11.285Z,10.20
2018-10-05T05:55:39.341Z,10.20
2018-10-05T05:58:07.317Z,10.20
2018-10-05T06:00:35.313Z,10.10
2018-10-05T06:03:03.296Z,10.10
2018-10-05T06:05:31.290Z,10.20
2018-10-05T06:07:59.307Z,10.20
2018-10-05T06:10:27.274Z,10.30
2018-10-05T06:12:55.282Z,10.30
2018-10-05T06:15:23.262Z,10.30
2018-10-05T06:17:51.219Z,10.30
2018-10-05T06:20:19.348Z,10.40
2018-10-05T06:22:47.529Z,10.40
2018-10-05T06:25:15.513Z,10.50
2018-10-05T06:27:43.494Z,10.50
2018-10-05T06:30:11.545Z,10.50
2018-10-05T06:32:39.633Z,10.60
2018-10-05T06:35:07.669Z,10.70
2018-10-05T06:37:35.686Z,10.70
2018-10-05T06:40:03.709Z,10.70
2018-10-05T06:42:31.876Z,10.80
2018-10-05T06:44:59.857Z,10.80
2018-10-05T06:47:27.829Z,10.90
2018-10-05T06:49:55.809Z,11.00
2018-10-05T06:52:23.828Z,11.00
2018-10-05T06:54:51.814Z,11.00
2018-10-05T06:57:19.784Z,11.10
2018-10-05T06:59:47.777Z,11.10
2018-10-05T07:02:15.745Z,11.20
2018-10-05T07:04:43.925Z,11.20
2018-10-05T07:07:11.985Z,11.30
2018-10-05T07:09:40.477Z,11.30
2018-10-05T07:12:08.476Z,11.30
2018-10-05T07:14:36.445Z,11.40
2018-10-05T07:17:04.415Z,11.40
2018-10-05T07:19:32.458Z,11.50
2018-10-05T07:22:00.514Z,11.60
2018-10-05T07:24:28.677Z,11.60
2018-10-05T07:26:56.685Z,11.70
2018-10-05T07:29:24.724Z,11.70
2018-10-05T07:31:52.696Z,11.80
2018-10-05T07:34:20.669Z,11.80
2018-10-05T07:36:48.715Z,11.90
2018-10-05T07:39:16.709Z,12.00
2018-10-05T07:41:44.745Z,12.10
2018-10-05T07:44:13.198Z,12.10
2018-10-05T07:46:41.202Z,12.20
2018-10-05T07:49:09.369Z,12.30
2018-10-05T07:51:37.495Z,12.30
2018-10-05T07:54:05.576Z,12.30
2018-10-05T07:56:33.585Z,12.50
2018-10-05T07:59:01.662Z,12.70
2018-10-05T08:01:29.669Z,12.90
2018-10-05T08:03:57.694Z,12.90
2018-10-05T08:06:25.697Z,13.00
2018-10-05T08:08:53.833Z,13.10
2018-10-05T08:11:21.797Z,13.10
2018-10-05T08:13:49.809Z,13.20
2018-10-05T08:16:17.852Z,13.20
2018-10-05T08:18:45.840Z,13.30
2018-10-05T08:21:13.824Z,13.40
2018-10-05T08:23:41.828Z,13.50
2018-10-05T08:26:09.812Z,13.60
2018-10-05T08:28:37.793Z,13.70
2018-10-05T08:31:05.833Z,13.90
2018-10-05T08:33:33.825Z,13.80
2018-10-05T08:36:01.805Z,13.90
2018-10-05T08:38:30.089Z,14.00
2018-10-05T08:40:58.046Z,14.00
2018-10-05T08:43:26.045Z,14.00
2018-10-05T08:45:54.105Z,14.10
2018-10-05T08:48:22.023Z,14.10
2018-10-05T08:50:50.010Z,14.10
2018-10-05T08:53:17.990Z,14.20
2018-10-05T08:55:45.953Z,14.30
2018-10-05T08:58:13.921Z,14.40
2018-10-05T09:00:41.987Z,14.40
2018-10-05T09:03:09.957Z,14.60
2018-10-05T09:05:37.981Z,14.70
2018-10-05T09:08:06.143Z,14.70
2018-10-05T09:10:35.035Z,14.90
2018-10-05T09:13:03.076Z,14.80
2018-10-05T09:15:31.068Z,14.90
2018-10-05T09:17:59.111Z,15.00
2018-10-05T09:20:27.373Z,15.10
2018-10-05T09:22:55.365Z,15.20
2018-10-05T09:25:24.262Z,15.30
2018-10-05T09:27:52.289Z,15.40
2018-10-05T09:30:20.277Z,15.40
2018-10-05T09:32:48.381Z,15.50
2018-10-05T09:35:16.429Z,15.60
2018-10-05T09:37:44.481Z,15.70
2018-10-05T09:40:12.489Z,15.80
2018-10-05T09:42:40.489Z,15.80
2018-10-05T09:45:08.549Z,15.90
2018-10-05T09:47:36.509Z,16.00
2018-10-05T09:50:04.507Z,16.20
2018-10-05T09:52:32.566Z,16.20
2018-10-05T09:55:00.706Z,16.30
2018-10-05T09:57:28.688Z,16.40
2018-10-05T10:00:03.695Z,16.40
2018-10-05T10:02:36.946Z,16.60
2018-10-05T10:05:04.986Z,16.60
2018-10-05T10:07:32.985Z,16.60
2018-10-05T10:10:00.977Z,16.60
2018-10-05T10:12:28.977Z,16.70
2018-10-05T10:14:56.969Z,16.90
2018-10-05T10:17:24.949Z,16.90
2018-10-05T10:19:52.941Z,16.90
2018-10-05T10:22:21.154Z,16.90
2018-10-05T10:24:49.163Z,16.90
2018-10-05T10:27:17.169Z,17.00
2018-10-05T10:29:45.181Z,17.20
2018-10-05T10:32:13.164Z,17.10
2018-10-05T10:34:41.225Z,17.20
2018-10-05T10:37:09.158Z,17.30
2018-10-05T10:39:37.182Z,17.30
2018-10-05T10:42:05.306Z,17.40
2018-10-05T10:44:33.381Z,17.50
2018-10-05T10:47:01.383Z,17.60
2018-10-05T10:49:29.406Z,17.70
2018-10-05T10:51:57.408Z,17.80
2018-10-05T10:54:25.437Z,18.00
2018-10-05T10:56:53.438Z,18.20
2018-10-05T10:59:21.504Z,18.30
2018-10-05T11:01:49.745Z,18.50
2018-10-05T11:04:17.779Z,18.70
2018-10-05T11:06:45.806Z,19.20
2018-10-05T11:09:13.810Z,19.40
2018-10-05T11:11:41.877Z,20.20
2018-10-05T11:14:09.896Z,21.60
2018-10-05T11:16:38.371Z,22.90
2018-10-05T11:21:40.706Z,24.40
2018-10-05T11:24:08.690Z,25.10
2018-10-05T11:26:36.692Z,26.20
2018-10-05T11:29:04.699Z,25.30
2018-10-05T11:31:32.767Z,26.60
2018-10-05T11:34:00.765Z,26.70
2018-10-05T11:36:28.778Z,26.90
2018-10-05T11:38:56.781Z,27.70
2018-10-05T11:41:24.790Z,28.70
2018-10-05T11:43:52.779Z,29.60
2018-10-05T11:46:20.788Z,29.40
2018-10-05T11:48:48.758Z,29.40
2018-10-05T11:51:16.733Z,30.30
2018-10-05T11:53:44.734Z,28.30
2018-10-05T11:56:12.721Z,28.20
2018-10-05T11:58:40.702Z,29.50
2018-10-05T12:01:08.672Z,30.80
2018-10-05T12:03:36.677Z,31.80
2018-10-05T12:06:04.661Z,31.80
2018-10-05T12:08:32.661Z,31.20
2018-10-05T12:11:00.679Z,30.90
2018-10-05T12:13:28.727Z,32.00
2018-10-05T12:15:56.728Z,33.90
2018-10-05T12:18:24.715Z,33.60
2018-10-05T12:20:52.705Z,33.80
2018-10-05T12:23:20.696Z,33.40
2018-10-05T12:25:48.693Z,33.10
2018-10-05T12:28:16.670Z,33.60
2018-10-05T12:30:44.707Z,33.30
2018-10-05T12:33:12.804Z,33.70
2018-10-05T12:35:40.776Z,34.10
2018-10-05T12:38:08.775Z,34.00
2018-10-05T12:40:36.749Z,33.80
2018-10-05T12:43:04.733Z,32.90
2018-10-05T12:45:32.765Z,32.20
2018-10-05T12:48:00.798Z,32.10
2018-10-05T12:50:28.782Z,32.40
2018-10-05T12:52:56.773Z,32.70
2018-10-05T12:55:24.809Z,32.10
2018-10-05T12:57:52.789Z,31.10
2018-10-05T13:00:20.770Z,32.10
2018-10-05T13:02:48.757Z,30.40
2018-10-05T13:05:16.725Z,30.40
2018-10-05T13:07:44.737Z,30.50
2018-10-05T13:10:12.734Z,31.20
2018-10-05T13:12:40.697Z,30.50
2018-10-05T13:15:08.721Z,30.60
2018-10-05T13:17:36.710Z,32.00
2018-10-05T13:20:04.718Z,32.10
2018-10-05T13:22:32.704Z,31.30
2018-10-05T13:25:00.693Z,30.80
2018-10-05T13:27:28.816Z,30.90
2018-10-05T13:29:56.801Z,29.90
2018-10-05T13:32:28.042Z,31.20
2018-10-05T13:34:56.117Z,32.10
2018-10-05T13:37:24.498Z,32.60
2018-10-05T13:39:52.390Z,32.70
2018-10-05T13:42:20.394Z,32.30
2018-10-05T13:44:48.409Z,32.70
2018-10-05T13:47:16.421Z,32.60
2018-10-05T13:49:44.427Z,31.80
2018-10-05T13:52:12.413Z,31.60
2018-10-05T13:54:40.442Z,31.80
2018-10-05T13:57:08.433Z,31.70
2018-10-05T13:59:36.423Z,32.00
2018-10-05T14:02:04.472Z,32.60
2018-10-05T14:04:32.466Z,31.30
2018-10-05T14:07:00.465Z,31.40
2018-10-05T14:09:28.771Z,31.40
2018-10-05T14:11:56.761Z,31.90
2018-10-05T14:14:24.748Z,31.00
2018-10-05T14:16:52.775Z,30.80
2018-10-05T14:19:20.770Z,31.80
2018-10-05T14:21:48.863Z,32.40
2018-10-05T14:24:16.814Z,33.30
2018-10-05T14:26:44.881Z,33.30
2018-10-05T14:29:12.866Z,33.30
2018-10-05T14:31:40.868Z,32.50
2018-10-05T14:34:08.869Z,32.00
2018-10-05T14:36:37.024Z,32.00
2018-10-05T14:39:06.785Z,32.00
2018-10-05T14:41:34.925Z,32.60
2018-10-05T14:44:03.284Z,32.50
2018-10-05T14:46:31.404Z,32.40
2018-10-05T14:48:59.398Z,31.20
2018-10-05T14:51:27.464Z,30.20
2018-10-05T14:53:55.474Z,31.20
2018-10-05T14:56:23.505Z,31.40
2018-10-05T14:58:51.608Z,32.50
2018-10-05T15:01:19.715Z,33.40
2018-10-05T15:03:47.717Z,32.50
2018-10-05T15:06:15.821Z,32.60
2018-10-05T15:08:43.790Z,31.20
2018-10-05T15:11:11.828Z,31.80
2018-10-05T15:13:39.851Z,31.60
2018-10-05T15:16:07.851Z,31.60
2018-10-05T15:18:35.946Z,31.80
2018-10-05T15:21:03.938Z,31.80
2018-10-05T15:23:31.932Z,31.30
2018-10-05T15:25:59.935Z,30.80
2018-10-05T15:28:27.972Z,30.90
2018-10-05T15:30:55.979Z,31.10
2018-10-05T15:33:24.021Z,31.30
2018-10-05T15:35:52.089Z,31.20
2018-10-05T15:38:20.090Z,31.20
2018-10-05T15:40:48.069Z,30.30
2018-10-05T15:43:16.062Z,29.30
2018-10-05T15:45:44.182Z,28.20
2018-10-05T15:48:12.335Z,27.00
2018-10-05T15:50:40.318Z,26.00
2018-10-05T15:53:08.334Z,24.30
2018-10-05T15:55:36.291Z,23.40
2018-10-05T15:58:04.312Z,23.10
2018-10-05T16:00:32.384Z,22.70
2018-10-05T16:03:00.373Z,22.60
2018-10-05T16:05:28.409Z,22.50
2018-10-05T16:07:56.331Z,22.20
2018-10-05T16:10:24.309Z,21.90
2018-10-05T16:12:52.574Z,21.70
2018-10-05T16:15:20.626Z,21.50
2018-10-05T16:17:48.632Z,21.40
2018-10-05T16:20:16.632Z,21.30
2018-10-05T16:22:44.959Z,21.20
2018-10-05T16:25:13.070Z,21.00
2018-10-05T16:27:41.176Z,20.90
2018-10-05T16:30:10.128Z,20.80
2018-10-05T16:32:38.181Z,20.80
2018-10-05T16:35:06.388Z,20.60
2018-10-05T16:37:34.429Z,20.60
2018-10-05T16:40:02.432Z,20.40
2018-10-05T16:42:30.445Z,20.40
2018-10-05T16:44:58.437Z,20.20
2018-10-05T16:47:26.409Z,20.10
2018-10-05T16:49:54.458Z,20.10
2018-10-05T16:52:22.394Z,20.00
2018-10-05T16:54:50.434Z,19.90
2018-10-05T16:57:18.535Z,19.80
2018-10-05T16:59:46.513Z,19.60
2018-10-05T17:02:14.516Z,19.50
2018-10-05T17:04:42.543Z,19.50
2018-10-05T17:07:10.553Z,19.40
2018-10-05T17:09:38.584Z,19.30
2018-10-05T17:12:06.614Z,19.20
2018-10-05T17:14:34.712Z,19.10
2018-10-05T17:17:02.730Z,19.00
2018-10-05T17:19:30.709Z,18.90
2018-10-05T17:21:58.735Z,18.90
2018-10-05T17:24:26.765Z,18.70
2018-10-05T17:26:54.732Z,18.60
2018-10-05T17:29:22.787Z,18.60
2018-10-05T17:31:50.751Z,18.50
2018-10-05T17:34:18.784Z,18.50
2018-10-05T17:36:46.788Z,18.40
2018-10-05T17:39:14.798Z,18.30
2018-10-05T17:41:42.764Z,18.20
2018-10-05T17:44:10.797Z,18.10
2018-10-05T17:46:38.890Z,18.00
2018-10-05T17:49:07.060Z,17.90
2018-10-05T17:51:35.802Z,17.90
2018-10-05T17:54:03.796Z,17.80
2018-10-05T17:56:32.106Z,17.80
2018-10-05T17:59:00.149Z,17.80
2018-10-05T18:01:28.139Z,17.80
2018-10-05T18:03:56.151Z,17.70
2018-10-05T18:06:24.129Z,17.70
2018-10-05T18:08:52.125Z,17.60
2018-10-05T18:11:20.085Z,17.60
2018-10-05T18:13:48.077Z,17.50
2018-10-05T18:16:16.146Z,17.50
2018-10-05T18:18:44.186Z,17.40
2018-10-05T18:21:12.201Z,17.40
2018-10-05T18:23:40.226Z,17.30
2018-10-05T18:26:08.385Z,17.30
2018-10-05T18:28:36.630Z,17.20
2018-10-05T18:31:04.679Z,17.20
2018-10-05T18:33:32.814Z,17.20
2018-10-05T18:36:00.941Z,17.10
2018-10-05T18:38:28.948Z,17.10
2018-10-05T18:40:56.962Z,17.10
2018-10-05T18:43:24.938Z,17.00
2018-10-05T18:45:53.000Z,16.90
2018-10-05T18:48:20.969Z,16.90
2018-10-05T18:50:48.977Z,16.90
2018-10-05T18:53:16.925Z,16.80
2018-10-05T18:55:45.079Z,16.80
2018-10-05T18:58:13.066Z,16.80
2018-10-05T19:00:41.081Z,16.80
2018-10-05T19:03:09.113Z,16.80
2018-10-05T19:05:37.180Z,16.80
2018-10-05T19:08:05.184Z,16.70
2018-10-05T19:10:33.883Z,16.70
2018-10-05T19:13:01.853Z,16.80
2018-10-05T19:15:29.821Z,16.80
2018-10-05T19:17:57.813Z,16.80
2018-10-05T19:20:25.777Z,16.80
2018-10-05T19:22:53.760Z,16.70
2018-10-05T19:25:21.849Z,16.80
2018-10-05T19:27:49.809Z,16.70
2018-10-05T19:30:17.777Z,16.70
2018-10-05T19:32:45.820Z,16.70
2018-10-05T19:35:13.789Z,16.60
2018-10-05T19:37:42.094Z,16.70
2018-10-05T19:40:10.252Z,16.60
2018-10-05T19:42:38.248Z,16.50
2018-10-05T19:45:07.282Z,16.40
2018-10-05T19:47:36.069Z,16.40
2018-10-05T19:50:04.178Z,16.40
2018-10-05T19:52:32.134Z,16.40
2018-10-05T19:55:00.106Z,16.40
2018-10-05T19:57:28.180Z,16.40
2018-10-05T19:59:56.233Z,16.40
2018-10-05T20:02:24.242Z,16.40
2018-10-05T20:04:52.173Z,16.30
2018-10-05T20:07:20.125Z,16.40
2018-10-05T20:09:48.169Z,16.30
2018-10-05T20:12:16.097Z,16.30
2018-10-05T20:14:44.065Z,16.20
2018-10-05T20:17:12.032Z,16.20
2018-10-05T20:19:40.042Z,16.20
2018-10-05T20:22:08.190Z,16.20
2018-10-05T20:24:36.187Z,16.30
2018-10-05T20:27:04.140Z,16.20
2018-10-05T20:29:32.181Z,16.20
2018-10-05T20:32:00.132Z,16.20
2018-10-05T20:34:28.112Z,16.20
2018-10-05T20:36:56.245Z,16.20
2018-10-05T20:39:24.060Z,16.20
2018-10-05T20:41:52.126Z,16.20
2018-10-05T20:44:20.124Z,16.10
2018-10-05T20:46:48.077Z,16.00
2018-10-05T20:49:16.046Z,16.00
2018-10-05T20:51:44.102Z,15.90
2018-10-05T20:54:11.973Z,15.90
2018-10-05T20:56:39.945Z,15.80
2018-10-05T20:59:07.958Z,15.70
2018-10-05T21:01:35.965Z,15.70
2018-10-05T21:04:03.995Z,15.60
2018-10-05T21:06:31.932Z,15.50
2018-10-05T21:08:59.908Z,15.50
2018-10-05T21:11:27.919Z,15.40
2018-10-05T21:13:56.060Z,15.40
2018-10-05T21:16:24.029Z,15.40
2018-10-05T21:18:52.021Z,15.40
2018-10-05T21:21:20.011Z,15.40
2018-10-05T21:23:48.788Z,15.30
2018-10-05T21:26:16.789Z,15.30
2018-10-05T21:28:44.776Z,15.30
2018-10-05T21:31:12.754Z,15.30
2018-10-05T21:33:40.766Z,15.40
2018-10-05T21:36:08.791Z,15.40
2018-10-05T21:38:36.778Z,15.50
2018-10-05T21:41:04.824Z,15.60
2018-10-05T21:43:32.813Z,15.60
2018-10-05T21:46:01.062Z,15.60
2018-10-05T21:48:29.328Z,15.60
2018-10-05T21:50:57.318Z,15.60
2018-10-05T21:53:25.338Z,15.70
2018-10-05T21:55:53.274Z,15.70
2018-10-05T21:58:21.298Z,15.70
2018-10-05T22:00:49.292Z,15.70
2018-10-05T22:03:17.336Z,15.60
2018-10-05T22:05:45.301Z,15.60
2018-10-05T22:08:13.563Z,15.60
2018-10-05T22:10:41.546Z,15.60
2018-10-05T22:13:09.835Z,15.60
2018-10-05T22:15:37.931Z,15.50
2018-10-05T22:18:06.070Z,15.50
2018-10-05T22:20:34.037Z,15.40
2018-10-05T22:23:01.997Z,15.40
2018-10-05T22:25:30.081Z,15.50
2018-10-05T22:27:58.033Z,15.50
2018-10-05T22:30:26.118Z,15.40
2018-10-05T22:32:54.084Z,15.40
2018-10-05T22:35:22.156Z,15.40
2018-10-05T22:37:50.122Z,15.30
2018-10-05T22:40:18.280Z,15.30
2018-10-05T22:42:46.250Z,15.30
2018-10-05T22:45:14.211Z,15.20
2018-10-05T22:47:42.185Z,15.20
2018-10-05T22:50:10.169Z,15.20
2018-10-05T22:52:38.162Z,15.10
2018-10-05T22:55:06.164Z,15.10
2018-10-05T22:57:34.222Z,15.10
2018-10-05T23:00:02.170Z,15.00
2018-10-05T23:02:30.243Z,14.90
2018-10-05T23:04:58.205Z,14.90
2018-10-05T23:07:26.486Z,14.80
2018-10-05T23:09:54.477Z,14.80
2018-10-05T23:12:22.456Z,14.70
2018-10-05T23:14:51.521Z,14.70
2018-10-05T23:17:19.725Z,14.70
2018-10-05T23:19:47.724Z,14.60
2018-10-05T23:22:15.716Z,14.50
2018-10-05T23:24:43.801Z,14.50
2018-10-05T23:27:11.789Z,14.50
2018-10-05T23:29:39.847Z,14.40
2018-10-05T23:32:07.829Z,14.40
2018-10-05T23:34:35.906Z,14.40
2018-10-05T23:37:03.940Z,14.40
2018-10-05T23:39:31.909Z,14.40
2018-10-05T23:41:59.885Z,14.30
2018-10-05T23:44:28.550Z,14.20
2018-10-05T23:46:56.557Z,14.20
2018-10-05T23:49:24.617Z,14.10
2018-10-05T23:51:52.650Z,14.10
2018-10-05T23:54:20.628Z,14.10
2018-10-05T23:56:48.625Z,14.10
2018-10-05T23:59:16.673Z,14.10
